TimeEST,TemperatureF,Dew PointF,Humidity,Sea Level PressureIn,VisibilityMPH,Wind Direction,Wind SpeedMPH,Gust SpeedMPH,PrecipitationIn,Events,Conditions,WindDirDegrees,DateUTC
12:17 AM,42.8,14.0,31,30.01,10.0,WSW,4.6,-,N/A,,Clear,250,2013-01-22 05:17:00
12:37 AM,42.8,14.0,31,30.01,10.0,West,5.8,-,N/A,,Clear,260,2013-01-22 05:37:00
12:57 AM,41.0,12.2,31,30.01,10.0,West,5.8,-,N/A,,Clear,260,2013-01-22 05:57:00
1:17 AM,39.2,12.2,33,30.01,10.0,NW,3.5,-,N/A,,Clear,310,2013-01-22 06:17:00
1:38 AM,39.2,14.0,36,30.02,10.0,NW,5.8,-,N/A,,Clear,310,2013-01-22 06:38:00
1:58 AM,37.4,10.4,33,30.03,10.0,NW,4.6,-,N/A,,Clear,310,2013-01-22 06:58:00
2:19 AM,37.4,8.6,30,30.04,10.0,NW,5.8,-,N/A,,Clear,310,2013-01-22 07:19:00
2:39 AM,37.4,8.6,30,30.04,10.0,NW,4.6,-,N/A,,Clear,310,2013-01-22 07:39:00
2:57 AM,35.6,6.8,30,30.04,10.0,NW,5.8,-,N/A,,Clear,320,2013-01-22 07:57:00
3:17 AM,35.6,6.8,30,30.05,10.0,WNW,3.5,-,N/A,,Clear,300,2013-01-22 08:17:00
3:37 AM,35.6,6.8,30,30.05,10.0,Calm,Calm,-,N/A,,Clear,0,2013-01-22 08:37:00
3:57 AM,33.8,8.6,35,30.07,10.0,NNW,4.6,-,N/A,,Clear,330,2013-01-22 08:57:00
4:20 AM,33.8,6.8,32,30.07,10.0,NW,4.6,-,N/A,,Clear,320,2013-01-22 09:20:00
4:37 AM,33.8,6.8,32,30.08,10.0,NW,5.8,-,N/A,,Clear,320,2013-01-22 09:37:00
4:57 AM,33.8,5.0,30,30.09,10.0,NW,4.6,-,N/A,,Clear,320,2013-01-22 09:57:00
5:17 AM,32.0,5.0,32,30.10,10.0,NNW,4.6,-,N/A,,Clear,340,2013-01-22 10:17:00
5:37 AM,30.2,5.0,34,30.11,10.0,NNW,3.5,-,N/A,,Clear,340,2013-01-22 10:37:00
5:57 AM,30.2,5.0,34,30.12,10.0,North,3.5,-,N/A,,Clear,350,2013-01-22 10:57:00
6:17 AM,30.2,6.8,37,30.13,10.0,North,9.2,-,N/A,,Clear,350,2013-01-22 11:17:00
6:37 AM,30.2,5.0,34,30.14,10.0,NNW,5.8,-,N/A,,Clear,340,2013-01-22 11:37:00
6:57 AM,30.2,6.8,37,30.16,10.0,NNW,4.6,-,N/A,,Clear,340,2013-01-22 11:57:00
7:17 AM,28.4,6.8,40,30.17,10.0,North,5.8,-,N/A,,Clear,360,2013-01-22 12:17:00
7:37 AM,28.4,6.8,40,30.17,10.0,North,8.1,-,N/A,,Clear,350,2013-01-22 12:37:00
7:57 AM,28.4,6.8,40,30.17,10.0,North,9.2,-,N/A,,Clear,350,2013-01-22 12:57:00
8:17 AM,28.4,8.6,43,30.18,10.0,North,6.9,-,N/A,,Clear,350,2013-01-22 13:17:00
8:57 AM,30.2,5.0,34,30.20,10.0,North,11.5,18.4,N/A,,Clear,350,2013-01-22 13:57:00
9:17 AM,30.2,5.0,34,30.21,10.0,NNW,8.1,-,N/A,,Clear,330,2013-01-22 14:17:00
9:37 AM,30.2,3.2,32,30.23,10.0,NNW,9.2,16.1,N/A,,Clear,340,2013-01-22 14:37:00
9:57 AM,32.0,3.2,30,30.24,10.0,NNW,9.2,-,N/A,,Clear,340,2013-01-22 14:57:00
10:17 AM,32.0,1.4,27,30.25,10.0,NW,11.5,-,N/A,,Clear,320,2013-01-22 15:17:00
10:57 AM,32.0,-0.4,25,30.25,10.0,North,8.1,-,N/A,,Clear,360,2013-01-22 15:57:00
11:17 AM,33.8,1.4,25,30.25,10.0,NW,9.2,-,N/A,,Clear,320,2013-01-22 16:17:00
11:37 AM,33.8,-0.4,23,30.24,10.0,WNW,6.9,-,N/A,,Clear,290,2013-01-22 16:37:00
11:57 AM,33.8,-0.4,23,30.24,10.0,NW,5.8,-,N/A,,Clear,310,2013-01-22 16:57:00
12:17 PM,33.8,-0.4,23,30.22,10.0,NW,5.8,-,N/A,,Clear,310,2013-01-22 17:17:00
12:37 PM,35.6,-0.4,22,30.21,10.0,NNW,6.9,-,N/A,,Clear,330,2013-01-22 17:37:00
1:17 PM,35.6,-0.4,22,30.20,10.0,North,4.6,-,N/A,,Clear,350,2013-01-22 18:17:00
1:57 PM,35.6,-0.4,22,30.19,10.0,Calm,Calm,-,N/A,,Clear,0,2013-01-22 18:57:00
2:17 PM,35.6,-0.4,22,30.19,10.0,WSW,8.1,-,N/A,,Clear,240,2013-01-22 19:17:00
2:37 PM,37.4,-0.4,20,30.18,10.0,West,4.6,-,N/A,,Clear,260,2013-01-22 19:37:00
2:57 PM,39.2,-2.2,17,30.18,10.0,WSW,10.4,17.3,N/A,,Clear,250,2013-01-22 19:57:00
3:17 PM,37.4,-5.8,16,30.20,10.0,WSW,12.7,20.7,N/A,,Clear,250,2013-01-22 20:17:00
3:40 PM,37.4,-7.6,15,30.20,10.0,WNW,8.1,20.7,N/A,,Clear,300,2013-01-22 20:40:00
3:57 PM,37.4,-7.6,15,30.20,10.0,WNW,10.4,18.4,N/A,,Clear,300,2013-01-22 20:57:00
4:17 PM,37.4,-7.6,15,30.20,10.0,West,10.4,-,N/A,,Clear,270,2013-01-22 21:17:00
4:37 PM,37.4,-7.6,15,30.21,10.0,West,5.8,-,N/A,,Clear,270,2013-01-22 21:37:00
5:01 PM,37.4,-7.6,15,30.21,10.0,NW,4.6,-,N/A,,Clear,310,2013-01-22 22:01:00
5:17 PM,37.4,-7.6,15,30.20,10.0,Calm,Calm,-,N/A,,Clear,0,2013-01-22 22:17:00
5:37 PM,35.6,-5.8,17,30.21,10.0,Calm,Calm,-,N/A,,Clear,0,2013-01-22 22:37:00
5:57 PM,35.6,-5.8,17,30.21,10.0,Calm,Calm,-,N/A,,Clear,0,2013-01-22 22:57:00
6:17 PM,32.0,3.2,30,30.22,10.0,Calm,Calm,-,N/A,,Clear,0,2013-01-22 23:17:00
6:37 PM,30.2,1.4,29,30.24,10.0,Calm,Calm,-,N/A,,Clear,0,2013-01-22 23:37:00
6:57 PM,30.2,10.4,44,30.24,10.0,Calm,Calm,-,N/A,,Clear,0,2013-01-22 23:57:00
7:17 PM,28.4,6.8,40,30.24,10.0,Calm,Calm,-,N/A,,Clear,0,2013-01-23 00:17:00
7:37 PM,28.4,5.0,37,30.24,10.0,Calm,Calm,-,N/A,,Clear,0,2013-01-23 00:37:00
7:57 PM,28.4,3.2,34,30.24,10.0,Calm,Calm,-,N/A,,Clear,0,2013-01-23 00:57:00
8:17 PM,28.4,5.0,37,30.24,10.0,Calm,Calm,-,N/A,,Clear,0,2013-01-23 01:17:00
8:37 PM,30.2,1.4,29,30.24,10.0,North,3.5,-,N/A,,Mostly Cloudy,10,2013-01-23 01:37:00
8:57 PM,30.2,1.4,29,30.25,10.0,Calm,Calm,-,N/A,,Overcast,0,2013-01-23 01:57:00
9:17 PM,30.2,3.2,32,30.25,10.0,Calm,Calm,-,N/A,,Overcast,0,2013-01-23 02:17:00
9:41 PM,30.2,-0.4,27,30.26,10.0,Calm,Calm,-,N/A,,Overcast,0,2013-01-23 02:41:00
9:57 PM,30.2,3.2,32,30.27,10.0,Calm,Calm,-,N/A,,Overcast,0,2013-01-23 02:57:00
10:20 PM,30.2,3.2,32,30.28,10.0,Calm,Calm,-,N/A,,Overcast,0,2013-01-23 03:20:00
10:37 PM,30.2,3.2,32,30.29,10.0,Calm,Calm,-,N/A,,Overcast,0,2013-01-23 03:37:00
10:57 PM,30.2,3.2,32,30.28,10.0,Calm,Calm,-,N/A,,Overcast,0,2013-01-23 03:57:00
11:17 PM,30.2,1.4,29,30.28,10.0,Calm,Calm,-,N/A,,Overcast,0,2013-01-23 04:17:00
11:37 PM,30.2,1.4,29,30.28,10.0,Calm,Calm,-,N/A,,Overcast,0,2013-01-23 04:37:00
11:57 PM,30.2,1.4,29,30.28,10.0,Calm,Calm,-,N/A,,Overcast,0,2013-01-23 04:57:00